Time;durP1;ratioP1;P1;durP2;ratioP2;P2;SDS_P1;SDS_P2;PMS_P1;PMS_P2;Temp;Humidity;BMP_temperature;BMP_pressure;BME280_temperature;BME280_humidity;BME280_pressure;Samples;Min_cycle;Max_cycle;Signal;HPM_P1;HPM_P2
2022/05/19 00:02:19;;;;;;;6.87;1.90;;;8.80;99.90;9.40;97926.00;;;;5018177;28;20206;-71
2022/05/19 00:05:10;;;;;;;2.37;2.13;;;9.00;99.90;9.40;97916.00;;;;5023405;28;20256;-70
2022/05/19 00:07:59;;;;;;;2.37;1.93;;;8.90;99.90;9.60;97925.00;;;;5012582;28;20209;-72
2022/05/19 00:10:48;;;;;;;5.30;2.10;;;8.90;99.90;9.80;97919.00;;;;5012370;28;20202;-70
2022/05/19 00:13:39;;;;;;;1.90;1.80;;;9.00;99.90;9.60;97921.00;;;;5014241;28;20205;-70
2022/05/19 00:16:29;;;;;;;6.47;2.20;;;9.00;99.90;9.40;97918.00;;;;5012172;28;20687;-70
2022/05/19 00:19:18;;;;;;;9.57;2.60;;;8.90;99.90;9.20;97914.00;;;;5017360;28;20217;-70
2022/05/19 00:22:07;;;;;;;2.80;2.27;;;8.90;99.90;9.60;97921.00;;;;5004239;28;20805;-70
2022/05/19 00:24:56;;;;;;;4.87;3.20;;;8.70;99.90;9.50;97919.00;;;;5004841;28;20208;-70
2022/05/19 00:27:45;;;;;;;2.53;2.20;;;8.80;99.90;9.50;97919.00;;;;5011542;28;20206;-70
2022/05/19 00:30:36;;;;;;;3.27;2.23;;;8.90;99.90;9.50;97913.00;;;;5014166;28;20218;-70
2022/05/19 00:33:24;;;;;;;3.17;2.40;;;8.70;99.90;9.40;97903.00;;;;5002179;28;20207;-70
2022/05/19 00:36:17;;;;;;;5.30;2.40;;;8.80;99.90;9.10;97910.00;;;;5011070;28;20204;-71
2022/05/19 00:39:06;;;;;;;5.97;2.33;;;8.50;99.90;8.60;97908.00;;;;5011791;28;20238;-70
2022/05/19 00:44:58;;;;;;;1.87;1.73;;;8.30;99.90;8.90;97912.00;;;;5010636;28;20622;-70
2022/05/19 00:47:53;;;;;;;3.33;2.10;;;8.40;99.90;8.70;97908.00;;;;5011202;28;20205;-70
2022/05/19 00:50:47;;;;;;;3.80;2.30;;;8.40;99.90;8.90;97913.00;;;;5012699;28;20222;-71
2022/05/19 00:53:42;;;;;;;1.97;1.77;;;8.40;99.90;9.00;97911.00;;;;5011551;28;20197;-72
2022/05/19 00:56:36;;;;;;;2.53;1.77;;;8.20;99.90;8.50;97910.00;;;;5012620;28;20235;-70
2022/05/19 00:59:31;;;;;;;2.60;2.40;;;8.20;99.90;9.00;97914.00;;;;5021417;28;20234;-70
2022/05/19 01:02:26;;;;;;;4.40;2.43;;;8.20;99.90;9.30;97908.00;;;;5011812;28;20422;-72
2022/05/19 01:05:20;;;;;;;2.40;2.10;;;8.50;99.90;9.40;97922.00;;;;5013035;28;20201;-70
2022/05/19 01:08:14;;;;;;;5.33;1.83;;;8.40;99.90;9.40;97910.00;;;;5011211;28;20209;-70
2022/05/19 01:11:06;;;;;;;4.37;1.60;;;8.50;99.90;9.50;97913.00;;;;5012213;28;20198;-70
2022/05/19 01:13:55;;;;;;;2.17;1.97;;;8.50;99.90;9.40;97914.00;;;;5011916;28;20212;-70
2022/05/19 01:16:44;;;;;;;4.83;1.73;;;8.60;99.90;9.10;97914.00;;;;5010372;28;20202;-70
2022/05/19 01:19:37;;;;;;;3.43;2.00;;;8.40;99.90;8.70;97901.00;;;;5015891;28;20233;-69
2022/05/19 01:22:37;;;;;;;6.73;1.73;;;8.50;99.90;8.20;97907.00;;;;5003976;28;20206;-70
2022/05/19 01:25:40;;;;;;;2.27;2.07;;;8.10;99.90;8.30;97894.00;;;;4995498;28;20214;-69
2022/05/19 01:28:30;;;;;;;1.77;1.67;;;8.10;99.90;8.50;97902.00;;;;4991379;28;20206;-69
2022/05/19 01:31:32;;;;;;;2.40;2.20;;;8.00;99.90;8.50;97897.00;;;;5001820;28;20210;-70
2022/05/19 01:34:24;;;;;;;2.10;1.90;;;7.90;99.90;8.10;97906.00;;;;5005737;28;20213;-70
2022/05/19 01:37:13;;;;;;;2.70;2.50;;;8.00;99.90;8.00;97907.00;;;;5011205;28;20264;-70
2022/05/19 01:40:08;;;;;;;2.97;2.70;;;7.70;99.90;8.10;97903.00;;;;5011089;28;20735;-71
2022/05/19 01:43:10;;;;;;;3.40;2.10;;;7.60;99.90;8.60;97904.00;;;;5010164;28;20596;-69
2022/05/19 01:46:16;;;;;;;2.30;2.10;;;7.50;99.90;8.70;97899.00;;;;5011760;28;20225;-70
2022/05/19 01:49:10;;;;;;;4.57;2.37;;;7.70;99.90;8.50;97893.00;;;;5011435;28;20225;-70
2022/05/19 01:52:08;;;;;;;2.80;2.00;;;7.90;99.90;8.60;97898.00;;;;5010298;28;20210;-69
2022/05/19 01:55:09;;;;;;;3.03;2.73;;;7.70;99.90;8.30;97903.00;;;;5010867;28;20692;-70
2022/05/19 01:58:05;;;;;;;2.57;2.27;;;7.90;99.90;8.00;97897.00;;;;5006737;28;20214;-71
2022/05/19 02:00:57;;;;;;;3.47;2.20;;;7.60;99.90;7.80;97890.00;;;;5005519;28;20202;-69
2022/05/19 02:03:54;;;;;;;2.80;2.10;;;7.60;99.90;8.10;97900.00;;;;5011638;28;20206;-72
2022/05/19 02:06:48;;;;;;;6.63;1.90;;;7.50;99.90;8.30;97901.00;;;;5010954;28;20224;-70
2022/05/19 02:09:43;;;;;;;2.43;1.70;;;7.50;99.90;7.90;97901.00;;;;5009647;28;20234;-69
2022/05/19 02:12:34;;;;;;;2.67;2.30;;;7.50;99.90;7.90;97903.00;;;;5011147;28;20210;-70
2022/05/19 02:15:27;;;;;;;3.20;2.10;;;7.20;99.90;8.00;97897.00;;;;5010288;28;20692;-70
2022/05/19 02:18:18;;;;;;;4.30;2.57;;;7.40;99.90;8.00;97904.00;;;;5012458;28;20217;-70
2022/05/19 02:21:09;;;;;;;2.13;2.00;;;7.40;99.90;7.70;97899.00;;;;5005192;28;20206;-70
2022/05/19 02:24:01;;;;;;;2.90;2.23;;;7.40;99.90;7.20;97895.00;;;;5007680;28;20202;-70
2022/05/19 02:26:50;;;;;;;6.70;2.70;;;7.30;99.90;7.30;97895.00;;;;4990315;28;20207;-70
2022/05/19 02:29:39;;;;;;;4.10;2.23;;;7.00;99.90;7.40;97898.00;;;;4998730;28;20226;-71
2022/05/19 02:32:28;;;;;;;4.60;2.20;;;7.00;99.90;7.60;97884.00;;;;4991542;28;20684;-70
2022/05/19 02:35:18;;;;;;;2.03;1.93;;;7.00;99.90;7.70;97889.00;;;;5007163;28;20200;-71
2022/05/19 02:38:08;;;;;;;5.43;1.93;;;7.10;99.90;7.50;97886.00;;;;4998769;28;20226;-71
2022/05/19 02:40:57;;;;;;;4.10;2.17;;;7.10;99.90;7.40;97890.00;;;;4999822;28;20198;-70
2022/05/19 02:43:46;;;;;;;2.67;2.33;;;6.90;99.90;7.40;97884.00;;;;5010881;28;20228;-70
2022/05/19 02:46:35;;;;;;;3.73;2.27;;;7.00;99.90;7.60;97896.00;;;;5009903;28;20213;-71
2022/05/19 02:49:25;;;;;;;2.17;1.97;;;7.10;99.90;7.30;97884.00;;;;5009851;28;20226;-70
2022/05/19 02:52:14;;;;;;;2.07;1.87;;;7.00;99.90;7.50;97885.00;;;;5010152;28;20233;-69
2022/05/19 02:55:06;;;;;;;4.07;2.07;;;6.90;99.90;7.30;97879.00;;;;5009928;28;20677;-69
2022/05/19 02:57:54;;;;;;;3.93;2.30;;;6.80;99.90;7.30;97881.00;;;;5007357;28;20234;-69
2022/05/19 03:00:47;;;;;;;2.40;2.03;;;6.70;99.90;6.90;97883.00;;;;4989834;28;20219;-71
2022/05/19 03:03:36;;;;;;;2.43;2.00;;;6.80;99.90;7.10;97879.00;;;;4998052;28;20724;-70
2022/05/19 03:06:25;;;;;;;2.93;2.20;;;6.80;99.90;7.30;97885.00;;;;5009194;28;20206;-69
2022/05/19 03:09:13;;;;;;;2.60;2.03;;;6.80;99.90;7.40;97886.00;;;;5009152;28;20238;-72
2022/05/19 03:12:04;;;;;;;6.73;2.20;;;6.80;99.90;7.20;97875.00;;;;5009835;28;20209;-70
2022/05/19 03:14:53;;;;;;;3.90;1.93;;;6.70;99.90;6.60;97870.00;;;;5011424;28;20570;-69
2022/05/19 03:17:43;;;;;;;6.50;2.60;;;6.50;99.90;6.70;97871.00;;;;5008627;28;20233;-70
2022/05/19 03:20:32;;;;;;;3.10;2.00;;;6.30;99.90;6.70;97872.00;;;;5003786;28;20724;-71
2022/05/19 03:23:21;;;;;;;3.57;2.07;;;6.40;99.90;7.00;97860.00;;;;5009156;28;20206;-70
2022/05/19 03:26:10;;;;;;;3.37;2.17;;;6.50;99.90;7.00;97868.00;;;;4997076;28;20198;-72
2022/05/19 03:29:00;;;;;;;2.47;2.27;;;6.40;99.90;7.00;97873.00;;;;4989878;28;20227;-70
2022/05/19 03:31:49;;;;;;;2.25;1.80;;;6.40;99.90;6.90;97871.00;;;;5002191;28;20677;-69
2022/05/19 03:34:38;;;;;;;2.70;2.10;;;6.30;99.90;6.90;97876.00;;;;5006992;28;20273;-69
2022/05/19 03:37:27;;;;;;;3.40;2.23;;;6.50;99.90;7.00;97867.00;;;;5009211;28;20225;-70
2022/05/19 03:40:19;;;;;;;4.00;2.90;;;6.40;99.90;7.10;97863.00;;;;5010415;28;20237;-69
2022/05/19 03:43:08;;;;;;;4.27;1.97;;;6.40;99.90;7.20;97863.00;;;;5009321;28;20202;-70
2022/05/19 03:46:02;;;;;;;2.57;2.13;;;6.60;99.90;7.60;97871.00;;;;5008449;28;20206;-70
2022/05/19 03:48:51;;;;;;;2.80;2.50;;;6.60;99.90;7.90;97865.00;;;;5008969;28;20236;-71
2022/05/19 03:51:42;;;;;;;3.10;2.57;;;6.60;99.90;7.70;97869.00;;;;5010159;28;20394;-69
2022/05/19 03:54:31;;;;;;;4.70;2.40;;;6.90;99.90;7.20;97865.00;;;;5008863;28;20213;-71
2022/05/19 03:57:23;;;;;;;4.33;2.17;;;6.70;99.90;7.00;97867.00;;;;5009209;28;20230;-69
2022/05/19 04:00:14;;;;;;;4.33;2.13;;;6.70;99.90;6.90;97874.00;;;;4998154;28;20226;-70
2022/05/19 04:03:04;;;;;;;7.10;2.57;;;6.60;99.90;7.10;97872.00;;;;5009234;28;20210;-70
2022/05/19 04:05:53;;;;;;;4.43;2.37;;;6.60;99.90;7.50;97873.00;;;;5008878;28;20206;-69
2022/05/19 04:08:42;;;;;;;2.07;1.87;;;6.50;99.90;7.40;97880.00;;;;5009051;28;20226;-70
2022/05/19 04:11:31;;;;;;;3.07;1.97;;;6.60;99.90;7.10;97869.00;;;;5002002;28;20579;-69
2022/05/19 04:14:21;;;;;;;2.17;1.97;;;6.70;99.90;7.20;97877.00;;;;5003460;28;20198;-68
2022/05/19 04:17:10;;;;;;;2.80;2.50;;;6.70;99.90;7.10;97868.00;;;;5007487;28;20273;-69
2022/05/19 04:20:00;;;;;;;2.03;1.93;;;6.60;99.90;7.10;97865.00;;;;5007386;28;20225;-68
2022/05/19 04:22:49;;;;;;;6.03;2.40;;;6.70;99.90;7.60;97875.00;;;;4999819;28;20201;-68
2022/05/19 04:25:39;;;;;;;3.23;2.43;;;6.90;99.90;7.60;97872.00;;;;5005464;28;20202;-68
2022/05/19 04:28:28;;;;;;;4.90;2.50;;;6.80;99.90;7.90;97871.00;;;;5015203;28;20212;-68
2022/05/19 04:31:17;;;;;;;4.13;2.27;;;6.80;99.90;8.20;97868.00;;;;5007845;28;20202;-69
2022/05/19 04:34:06;;;;;;;2.20;1.97;;;7.00;99.90;8.20;97865.00;;;;5007845;28;20202;-67
2022/05/19 04:36:56;;;;;;;2.03;1.83;;;7.10;99.90;8.20;97873.00;;;;5009769;28;20225;-68
2022/05/19 04:39:45;;;;;;;4.87;2.47;;;7.20;99.90;8.30;97870.00;;;;5011359;28;20237;-68
2022/05/19 04:42:34;;;;;;;3.40;3.13;;;7.30;99.90;8.40;97869.00;;;;5010810;28;20195;-67
2022/05/19 04:45:23;;;;;;;2.27;2.03;;;7.60;99.90;8.50;97875.00;;;;5012183;28;20206;-68
2022/05/19 04:48:12;;;;;;;2.53;2.20;;;7.40;99.90;8.60;97868.00;;;;5004954;28;20207;-67
2022/05/19 04:51:01;;;;;;;2.27;2.07;;;7.60;99.90;8.90;97865.00;;;;5012091;28;20209;-68
2022/05/19 04:53:52;;;;;;;2.57;2.37;;;7.80;99.90;8.80;97868.00;;;;5006271;28;20206;-67
2022/05/19 04:56:41;;;;;;;2.00;1.90;;;7.80;99.90;8.90;97871.00;;;;5009689;28;20229;-67
2022/05/19 04:59:30;;;;;;;5.00;2.53;;;8.10;99.90;8.60;97864.00;;;;5008110;28;20234;-68
2022/05/19 05:02:19;;;;;;;4.23;2.20;;;8.10;99.90;9.10;97861.00;;;;5009856;28;20577;-68
2022/05/19 05:05:09;;;;;;;4.70;2.47;;;8.20;99.90;9.20;97858.00;;;;4997101;28;20678;-68
2022/05/19 05:07:58;;;;;;;5.17;2.33;;;8.30;99.90;9.20;97871.00;;;;4991983;28;20206;-67
2022/05/19 05:10:48;;;;;;;2.50;2.30;;;8.50;99.90;9.20;97872.00;;;;5004844;28;20213;-67
2022/05/19 05:13:37;;;;;;;7.13;2.77;;;8.60;99.90;9.50;97867.00;;;;5009214;28;20209;-67
2022/05/19 05:16:26;;;;;;;4.10;2.33;;;8.40;99.90;9.70;97873.00;;;;5008680;28;20972;-68
2022/05/19 05:19:18;;;;;;;4.40;2.17;;;8.80;99.90;9.90;97880.00;;;;5007766;28;20265;-69
2022/05/19 05:22:07;;;;;;;6.77;2.23;;;9.00;99.90;10.00;97871.00;;;;5008908;28;20205;-67
2022/05/19 05:24:56;;;;;;;2.53;2.17;;;9.10;99.90;9.80;97874.00;;;;5003588;28;20205;-68
2022/05/19 05:27:46;;;;;;;4.07;2.30;;;9.60;99.90;10.40;97884.00;;;;5010490;28;20225;-68
2022/05/19 05:30:35;;;;;;;4.23;3.10;;;9.30;99.90;10.50;97880.00;;;;5012066;28;20226;-69
2022/05/19 05:33:24;;;;;;;4.10;2.93;;;9.60;99.90;10.60;97872.00;;;;5003322;28;20202;-68
2022/05/19 05:36:13;;;;;;;3.83;2.63;;;9.70;99.90;10.80;97887.00;;;;5010934;28;20209;-68
2022/05/19 05:39:01;;;;;;;2.53;2.33;;;9.70;99.90;11.20;97886.00;;;;5010770;28;20244;-68
2022/05/19 05:41:50;;;;;;;4.83;3.13;;;9.60;99.90;11.30;97887.00;;;;5012465;28;20202;-69
2022/05/19 05:44:40;;;;;;;6.43;2.80;;;10.00;99.90;11.70;97887.00;;;;5010267;28;20201;-68
2022/05/19 05:47:29;;;;;;;5.40;2.83;;;10.30;99.90;11.80;97895.00;;;;5019561;28;20202;-69
2022/05/19 05:50:20;;;;;;;3.37;3.07;;;10.60;99.90;12.00;97899.00;;;;4999973;28;20234;-68
2022/05/19 05:53:10;;;;;;;4.97;3.13;;;10.70;99.90;12.30;97883.00;;;;5011756;28;20205;-69
2022/05/19 05:55:59;;;;;;;7.33;3.10;;;11.00;99.90;12.50;97888.00;;;;5013730;28;20214;-68
2022/05/19 05:58:48;;;;;;;5.40;2.70;;;11.10;99.90;12.80;97892.00;;;;4992476;28;20234;-68
2022/05/19 06:01:38;;;;;;;3.83;3.20;;;11.30;99.90;12.90;97889.00;;;;5010772;28;20210;-69
2022/05/19 06:04:27;;;;;;;8.57;3.57;;;11.70;99.90;13.30;97891.00;;;;5011046;28;20232;-67
2022/05/19 06:07:16;;;;;;;5.23;2.93;;;11.90;99.90;13.60;97898.00;;;;5000092;28;20206;-69
2022/05/19 06:10:06;;;;;;;4.13;2.40;;;12.10;99.90;13.30;97882.00;;;;5010823;28;20237;-68
2022/05/19 06:12:55;;;;;;;7.30;3.90;;;12.10;99.90;13.90;97886.00;;;;5009427;28;20210;-68
2022/05/19 06:15:44;;;;;;;6.53;3.30;;;12.40;99.90;14.30;97886.00;;;;4994899;28;20206;-68
2022/05/19 06:18:34;;;;;;;4.37;3.13;;;12.70;99.90;14.50;97879.00;;;;5008749;28;20236;-67
2022/05/19 06:21:23;;;;;;;7.00;2.83;;;12.70;99.90;14.60;97896.00;;;;4999483;28;20667;-68
2022/05/19 06:24:12;;;;;;;4.50;2.77;;;13.00;99.90;14.80;97876.00;;;;5004360;28;20546;-68
2022/05/19 06:27:01;;;;;;;8.33;2.70;;;13.20;99.90;15.10;97872.00;;;;4990645;28;20702;-67
2022/05/19 06:29:50;;;;;;;5.27;3.20;;;13.50;99.90;15.40;97877.00;;;;5000087;28;20228;-68
2022/05/19 06:32:39;;;;;;;7.77;2.70;;;13.60;99.90;15.60;97870.00;;;;5003552;28;20206;-69
2022/05/19 06:35:32;;;;;;;6.37;3.13;;;13.90;99.90;15.90;97871.00;;;;5011120;28;20214;-68
2022/05/19 06:38:21;;;;;;;4.00;2.77;;;14.10;99.90;16.20;97859.00;;;;5008732;28;20233;-69
2022/05/19 06:44:17;;;;;;;2.10;1.90;;;14.70;99.90;16.60;97861.00;;;;5009842;28;20676;-68
2022/05/19 06:47:13;;;;;;;8.77;3.00;;;14.70;99.90;16.80;97855.00;;;;5009922;28;20677;-69
2022/05/19 06:50:02;;;;;;;10.60;3.43;;;15.10;99.90;17.10;97856.00;;;;5009989;28;20236;-67
2022/05/19 06:52:55;;;;;;;8.53;2.53;;;15.50;99.90;17.30;97859.00;;;;5009380;28;20217;-69
2022/05/19 06:55:44;;;;;;;5.70;2.83;;;15.60;99.90;17.40;97856.00;;;;5007785;28;20198;-68
2022/05/19 06:58:33;;;;;;;8.57;3.07;;;15.80;99.90;17.70;97851.00;;;;5015971;28;20225;-68
2022/05/19 07:01:22;;;;;;;6.27;2.97;;;16.10;99.90;17.90;97856.00;;;;5008234;28;20216;-68
2022/05/19 07:04:11;;;;;;;7.30;3.40;;;16.10;99.90;18.10;97863.00;;;;5003055;28;20570;-68
2022/05/19 07:06:58;;;;;;;5.27;2.67;;;16.40;99.90;18.30;97851.00;;;;4992662;28;20674;-69
2022/05/19 07:09:49;;;;;;;5.80;2.43;;;16.70;99.90;18.50;97856.00;;;;5011640;28;20234;-68
2022/05/19 07:12:38;;;;;;;3.80;2.23;;;16.80;99.90;18.70;97857.00;;;;5008494;28;20202;-69
2022/05/19 07:15:28;;;;;;;4.37;2.10;;;17.10;99.90;19.00;97854.00;;;;5002998;28;20206;-69
2022/05/19 07:18:17;;;;;;;5.27;2.10;;;17.10;99.90;19.10;97858.00;;;;4993482;28;20201;-69
2022/05/19 07:21:04;;;;;;;3.80;2.23;;;17.50;99.90;19.20;97854.00;;;;4999419;28;20206;-69
2022/05/19 07:23:54;;;;;;;6.73;2.37;;;17.50;99.90;19.20;97857.00;;;;5006915;28;20213;-69
2022/05/19 07:26:47;;;;;;;4.30;2.27;;;17.60;98.20;19.30;97857.00;;;;5006489;28;20583;-69
2022/05/19 07:29:36;;;;;;;5.87;1.90;;;17.70;96.60;19.50;97854.00;;;;4999532;28;20724;-69
2022/05/19 07:32:25;;;;;;;4.97;1.93;;;17.80;96.40;19.40;97855.00;;;;5012961;28;20201;-68
2022/05/19 07:35:16;;;;;;;4.17;2.27;;;18.00;96.30;19.70;97859.00;;;;5002973;28;20205;-68
2022/05/19 07:38:05;;;;;;;2.70;1.97;;;18.10;95.10;19.90;97861.00;;;;4992988;28;20206;-68
2022/05/19 07:40:55;;;;;;;3.27;2.37;;;18.20;94.70;20.20;97854.00;;;;4997903;28;20209;-69
2022/05/19 07:43:46;;;;;;;5.33;2.50;;;18.40;94.40;20.30;97861.00;;;;5018101;28;20579;-69
2022/05/19 07:46:38;;;;;;;5.23;3.37;;;18.50;93.20;20.40;97857.00;;;;5012963;28;20225;-69
2022/05/19 07:49:27;;;;;;;2.90;2.00;;;18.60;92.30;20.70;97859.00;;;;5009462;28;20601;-69
2022/05/19 07:52:16;;;;;;;2.27;2.00;;;18.90;91.70;20.50;97858.00;;;;5010413;28;20248;-69
2022/05/19 07:55:06;;;;;;;5.30;2.20;;;19.00;90.30;20.90;97868.00;;;;5012070;28;20198;-69
2022/05/19 07:57:56;;;;;;;3.23;1.53;;;19.10;91.60;21.10;97864.00;;;;5000760;28;20204;-69
2022/05/19 08:00:47;;;;;;;3.73;2.37;;;19.30;90.70;21.10;97858.00;;;;5014142;28;20233;-69
2022/05/19 08:03:36;;;;;;;1.90;1.73;;;19.40;88.00;21.40;97863.00;;;;5002091;28;20206;-68
2022/05/19 08:06:25;;;;;;;1.73;1.63;;;19.60;85.30;21.60;97862.00;;;;4997035;28;20666;-69
2022/05/19 08:15:36;;;;;;;10.70;2.67;;;19.90;78.10;21.00;97859.00;;;;5003492;28;20194;-69
2022/05/19 08:18:27;;;;;;;5.93;2.57;;;20.00;74.70;20.50;97848.00;;;;5015047;28;20208;-69
2022/05/19 08:21:16;;;;;;;3.33;1.80;;;19.90;75.40;20.60;97852.00;;;;5012508;28;20593;-67
2022/05/19 08:24:06;;;;;;;2.37;1.47;;;19.70;75.00;20.40;97855.00;;;;5000094;28;20206;-69
2022/05/19 08:26:55;;;;;;;6.63;2.40;;;19.40;74.90;21.10;97851.00;;;;5008085;28;20667;-69
2022/05/19 08:29:44;;;;;;;4.93;2.30;;;19.60;75.70;21.60;97859.00;;;;5006224;28;20229;-68
2022/05/19 08:32:33;;;;;;;2.83;1.73;;;19.80;76.70;22.00;97860.00;;;;5010640;28;20206;-69
2022/05/19 08:35:24;;;;;;;3.50;2.33;;;20.00;76.90;21.50;97856.00;;;;5007380;28;20207;-69
2022/05/19 08:38:13;;;;;;;4.77;1.77;;;20.20;75.00;22.30;97857.00;;;;5011312;28;20995;-69
2022/05/19 08:41:06;;;;;;;4.20;3.47;;;20.40;73.80;22.60;97851.00;;;;5012385;28;20230;-69
2022/05/19 08:43:59;;;;;;;4.83;2.30;;;20.60;73.30;22.10;97853.00;;;;5013091;28;20202;-67
2022/05/19 08:46:52;;;;;;;4.87;2.23;;;20.80;69.70;22.50;97852.00;;;;5010964;28;20221;-69
2022/05/19 08:49:46;;;;;;;4.77;2.13;;;20.90;69.90;22.60;97849.00;;;;5012161;28;20229;-67
2022/05/19 08:52:41;;;;;;;6.77;2.33;;;21.00;70.70;22.20;97849.00;;;;5008352;28;20227;-69
2022/05/19 08:55:31;;;;;;;5.20;2.27;;;21.10;69.80;21.40;97837.00;;;;5019686;28;20194;-69
2022/05/19 08:58:38;;;;;;;3.63;2.23;;;21.00;67.10;21.90;97838.00;;;;5016185;28;20212;-69
2022/05/19 09:01:36;;;;;;;3.40;2.33;;;20.80;65.80;21.60;97836.00;;;;5019022;28;20210;-69
2022/05/19 09:04:49;;;;;;;6.03;2.60;;;20.80;64.90;21.70;97836.00;;;;5004215;28;20213;-68
2022/05/19 09:07:59;;;;;;;2.57;2.00;;;20.70;66.80;22.10;97837.00;;;;5002670;28;20201;-69
2022/05/19 09:11:06;;;;;;;2.97;1.83;;;20.70;68.10;22.40;97833.00;;;;5008720;28;20202;-68
2022/05/19 09:14:00;;;;;;;6.17;3.00;;;20.90;67.80;22.70;97832.00;;;;5013986;28;20211;-69
2022/05/19 09:16:51;;;;;;;3.07;2.30;;;21.10;65.60;23.20;97838.00;;;;5017632;28;20206;-69
2022/05/19 09:19:44;;;;;;;7.50;3.07;;;21.40;67.90;23.50;97834.00;;;;5012606;28;20233;-68
2022/05/19 09:22:34;;;;;;;4.20;1.83;;;21.60;65.10;22.40;97823.00;;;;5009799;28;20206;-68
2022/05/19 09:25:24;;;;;;;17.63;3.07;;;21.70;62.00;22.30;97818.00;;;;5006970;28;20257;-68
2022/05/19 09:28:14;;;;;;;5.57;2.03;;;21.40;63.60;23.50;97827.00;;;;5008876;28;20213;-69
2022/05/19 09:31:02;;;;;;;4.57;2.67;;;21.60;64.10;22.80;97826.00;;;;5019109;28;20208;-68
2022/05/19 09:33:51;;;;;;;4.90;2.10;;;21.80;63.80;23.40;97821.00;;;;5007638;28;20301;-69
2022/05/19 09:37:00;;;;;;;3.37;2.00;;;21.80;64.00;22.80;97821.00;;;;5014712;28;20214;-68
2022/05/19 09:39:53;;;;;;;4.70;2.37;;;21.90;61.40;23.30;97821.00;;;;5003692;28;20230;-69
2022/05/19 09:42:55;;;;;;;3.73;2.67;;;22.10;62.90;22.50;97808.00;;;;5017403;28;20202;-69
2022/05/19 09:45:47;;;;;;;6.33;2.40;;;21.90;60.90;23.50;97818.00;;;;5010953;28;20202;-69
2022/05/19 09:48:43;;;;;;;4.17;2.23;;;22.00;61.10;22.50;97809.00;;;;5021388;28;20198;-69
2022/05/19 09:51:41;;;;;;;6.63;2.50;;;21.90;61.50;23.20;97812.00;;;;5016551;28;20216;-69
2022/05/19 09:54:32;;;;;;;3.17;2.03;;;21.90;63.20;22.60;97814.00;;;;5013204;28;20586;-69
2022/05/19 09:57:28;;;;;;;4.07;2.20;;;21.80;62.20;23.90;97799.00;;;;5021790;28;20216;-68
2022/05/19 10:00:30;;;;;;;2.60;1.87;;;22.10;63.40;23.30;97802.00;;;;5013774;28;20245;-69
2022/05/19 10:03:26;;;;;;;4.77;2.23;;;22.30;60.20;24.00;97794.00;;;;5011730;28;20699;-69
2022/05/19 10:06:20;;;;;;;6.43;2.50;;;22.40;61.50;24.80;97789.00;;;;5006630;28;20213;-68
2022/05/19 10:09:17;;;;;;;3.40;2.53;;;22.70;62.50;23.80;97778.00;;;;5012092;28;20780;-69
2022/05/19 10:12:10;;;;;;;3.00;2.70;;;22.80;60.00;24.10;97782.00;;;;5042776;22;20233;-69
2022/05/19 10:15:05;;;;;;;3.10;2.07;;;22.70;59.30;25.60;97777.00;;;;5026798;28;20587;-69
2022/05/19 10:18:09;;;;;;;4.30;2.00;;;23.10;63.80;24.80;97787.00;;;;5022915;28;20206;-68
2022/05/19 10:21:15;;;;;;;3.83;2.57;;;23.50;59.30;24.30;97767.00;;;;5028261;28;20233;-69
2022/05/19 10:24:38;;;;;;;3.13;2.17;;;23.50;59.20;25.00;97751.00;;;;5027736;28;20224;-69
2022/05/19 10:31:06;;;;;;;3.17;2.40;;;23.10;58.30;24.80;97758.00;;;;5029770;28;20225;-68
2022/05/19 10:34:23;;;;;;;6.63;2.27;;;23.00;59.60;24.30;97743.00;;;;5023791;28;20205;-68
2022/05/19 10:37:23;;;;;;;5.13;2.23;;;23.40;58.90;26.00;97754.00;;;;5030243;28;20220;-69
2022/05/19 10:40:29;;;;;;;7.90;2.50;;;23.70;62.70;26.90;97749.00;;;;5029859;28;20213;-69
2022/05/19 10:43:34;;;;;;;2.70;2.13;;;24.20;62.30;26.70;97742.00;;;;5029986;28;20205;-69
2022/05/19 10:46:27;;;;;;;4.63;2.57;;;24.70;60.00;24.60;97746.00;;;;5030315;28;20207;-69
2022/05/19 10:49:43;;;;;;;5.40;3.13;;;24.60;57.70;25.20;97736.00;;;;5031236;28;20211;-68
2022/05/19 10:52:53;;;;;;;5.93;2.70;;;24.50;57.90;26.30;97726.00;;;;5029942;28;20201;-68
2022/05/19 10:56:02;;;;;;;3.43;2.53;;;24.60;57.90;26.00;97736.00;;;;5028294;28;20205;-68
2022/05/19 10:59:11;;;;;;;3.40;1.87;;;24.80;58.00;27.00;97734.00;;;;5018760;28;20208;-68
2022/05/19 11:02:19;;;;;;;6.40;2.40;;;25.10;58.20;27.40;97718.00;;;;5028542;28;20228;-68
2022/05/19 11:05:36;;;;;;;3.47;2.23;;;25.40;58.10;26.20;97717.00;;;;5017934;28;20241;-68
2022/05/19 11:08:41;;;;;;;2.20;1.77;;;25.40;55.80;27.10;97710.00;;;;5023205;28;20232;-68
2022/05/19 11:11:44;;;;;;;4.90;2.10;;;25.40;56.20;26.00;97713.00;;;;5018482;28;20236;-67
2022/05/19 11:15:02;;;;;;;3.60;2.40;;;25.30;54.40;26.70;97700.00;;;;5026157;28;20220;-67
2022/05/19 11:18:01;;;;;;;2.37;2.10;;;25.20;56.00;25.40;97691.00;;;;5029158;28;20214;-69
2022/05/19 11:21:04;;;;;;;3.73;3.27;;;25.10;55.10;24.50;97677.00;;;;5026359;28;20251;-69
2022/05/19 11:24:01;;;;;;;3.43;2.07;;;24.70;55.60;23.10;97669.00;;;;5023973;28;20208;-67
2022/05/19 11:27:01;;;;;;;2.37;2.17;;;23.70;55.90;25.30;97672.00;;;;5023083;28;20211;-68
2022/05/19 11:29:53;;;;;;;3.13;2.40;;;23.90;57.80;26.60;97675.00;;;;5027415;28;20208;-67
2022/05/19 11:32:43;;;;;;;2.63;2.03;;;24.40;58.00;26.00;97676.00;;;;5033304;28;20209;-68
2022/05/19 11:35:39;;;;;;;3.60;1.97;;;24.70;55.40;26.80;97679.00;;;;5032848;28;20216;-68
2022/05/19 11:38:41;;;;;;;2.67;2.47;;;24.80;55.40;28.30;97673.00;;;;5032284;28;20209;-68
2022/05/19 11:41:35;;;;;;;2.27;2.07;;;25.40;57.80;28.10;97671.00;;;;5032801;28;20684;-68
2022/05/19 11:44:28;;;;;;;2.13;2.03;;;26.00;56.00;28.80;97666.00;;;;5031950;28;20221;-68
2022/05/19 11:56:56;;;;;;;4.17;2.10;;;26.50;52.50;28.20;97650.00;;;;5031660;28;20198;-69
2022/05/19 11:59:50;;;;;;;3.03;2.57;;;26.60;52.10;26.40;97655.00;;;;5032506;28;20586;-68
2022/05/19 12:02:48;;;;;;;4.97;2.03;;;26.30;52.60;25.50;97645.00;;;;5030649;28;20202;-68
2022/05/19 12:05:44;;;;;;;3.53;1.90;;;26.00;52.40;25.90;97625.00;;;;5031681;28;20263;-67
2022/05/19 12:08:38;;;;;;;4.00;3.07;;;25.80;52.20;26.30;97637.00;;;;5029918;28;20597;-69
2022/05/19 12:11:31;;;;;;;2.90;2.03;;;25.60;53.40;27.20;97634.00;;;;5032668;28;20236;-68
2022/05/19 12:14:35;;;;;;;6.87;2.67;;;25.70;53.10;28.60;97631.00;;;;5031795;28;20202;-68
2022/05/19 12:17:41;;;;;;;2.20;2.00;;;26.10;53.30;28.40;97634.00;;;;5029911;28;20206;-68
2022/05/19 12:20:54;;;;;;;3.50;2.20;;;26.50;52.50;26.80;97642.00;;;;5030845;28;20231;-70
2022/05/19 12:23:45;;;;;;;4.43;4.03;;;26.60;53.00;28.20;97633.00;;;;5031328;28;20201;-68
2022/05/19 12:26:45;;;;;;;4.37;2.17;;;26.50;53.80;30.30;97634.00;;;;5031755;28;20208;-69
2022/05/19 12:29:43;;;;;;;6.23;2.13;;;27.00;53.70;30.20;97626.00;;;;5029601;28;20588;-69
2022/05/19 12:32:36;;;;;;;7.22;2.63;;;27.60;63.60;29.40;97630.00;;;;5027248;28;20415;-69
2022/05/19 12:35:29;;;;;;;3.87;2.30;;;28.00;51.60;30.60;97626.00;;;;5031297;28;20273;-69
2022/05/19 12:38:32;;;;;;;2.47;2.08;;;28.20;51.60;30.20;97620.00;;;;5029771;28;20204;-69
2022/05/19 12:41:40;;;;;;;2.38;2.10;;;28.60;50.00;29.00;97615.00;;;;5030825;28;20225;-69
2022/05/19 12:44:46;;;;;;;4.37;2.07;;;28.50;49.40;26.30;97606.00;;;;5031997;28;20221;-68
2022/05/19 12:47:35;;;;;;;2.67;2.00;;;27.30;49.50;28.00;97611.00;;;;5031465;28;20221;-68
2022/05/19 12:50:27;;;;;;;3.03;2.00;;;27.00;51.10;29.80;97610.00;;;;5032624;28;20707;-69
2022/05/19 12:53:42;;;;;;;2.30;2.10;;;27.50;52.50;31.40;97602.00;;;;5028531;28;20217;-69
2022/05/19 12:57:25;;;;;;;5.17;2.10;;;28.00;51.60;28.80;97597.00;;;;5030091;28;20210;-70
2022/05/19 13:00:22;;;;;;;4.10;2.10;;;28.30;48.40;27.60;97591.00;;;;5023295;28;20207;-69
2022/05/19 13:03:16;;;;;;;3.67;1.80;;;27.70;48.90;29.10;97591.00;;;;5030224;28;20208;-69
2022/05/19 13:06:06;;;;;;;3.00;2.43;;;27.60;50.70;30.50;97602.00;;;;5031055;28;20820;-69
2022/05/19 13:08:56;;;;;;;5.83;2.77;;;27.90;51.50;30.00;97599.00;;;;5030849;28;20207;-68
2022/05/19 13:11:52;;;;;;;4.80;2.30;;;28.20;49.60;31.20;97598.00;;;;5026627;28;20608;-68
2022/05/19 13:14:47;;;;;;;2.20;1.60;;;28.40;50.60;32.80;97612.00;;;;5026956;28;20205;-68
2022/05/19 13:17:43;;;;;;;2.20;1.50;;;29.10;50.60;32.80;97603.00;;;;5030175;28;20183;-68
2022/05/19 13:20:36;;;;;;;3.13;1.90;;;29.60;49.10;30.20;97591.00;;;;5029362;28;20249;-68
2022/05/19 13:23:30;;;;;;;5.20;2.03;;;29.80;46.20;29.70;97602.00;;;;5037209;28;20207;-68